Weather reports worldwide

Advertisment
Puebla Trives/San Mamede, Spain (8051): temperature & dewpoint: 08.10.2019 13:00:00 - 14.10.2019 13:00:00 (CEST)Puebla Trives/San Mamede, Spain (8051): wind speed & gusts: 08.10.2019 13:00:00 - 14.10.2019 13:00:00 (CEST)Puebla Trives/San Mamede, Spain (8051): wind direction: 08.10.2019 13:00:00 - 14.10.2019 13:00:00 (CEST)Puebla Trives/San Mamede, Spain (8051): visibility: 08.10.2019 13:00:00 - 14.10.2019 13:00:00 (CEST)Puebla Trives/San Mamede, Spain (8051): sunshine duration: 08.10.2019 13:00:00 - 14.10.2019 13:00:00 (CEST)Puebla Trives/San Mamede, Spain (8051): precipitation: 08.10.2019 13:00:00 - 14.10.2019 13:00:00 (CEST)
Date & Time tt [°C] td [°C] ff [km/h] ff [kn] fx [km/h] fx [kn] dd vv [km] sd [min] rr [mm]
14.10.2019 13:00:00 9,8 7,6 4 2 18 10 SW 2,9 0 0,0
14.10.2019 12:00:00 8,8 7,4 8 5 28 15 W 2,4 0 2,0
14.10.2019 11:00:00 8,9 8,0 4 2 11 6 W 1,6 0 1,6
14.10.2019 10:00:00 8,6 7,3 4 2 17 9 E 3,0 0 0,0
14.10.2019 09:00:00 8,4 7,7 3 2 9 5 N 2,7 0 0,0
14.10.2019 08:00:00 8,3 7,6 7 4 19 10 SE 2,7 0 -
14.10.2019 07:00:00 8,4 7,7 7 4 14 8 ESE 2,3 0 2,0
14.10.2019 06:00:00 8,6 7,3 8 4 32 17 W 1,8 0 2,8
14.10.2019 05:00:00 8,8 7,7 16 9 29 16 W 1,7 0 5,2
14.10.2019 04:00:00 9,2 8,3 11 6 29 16 WNW 1,7 0 3,2
14.10.2019 03:00:00 9,8 8,8 13 7 32 18 W 1,4 0 5,0
14.10.2019 02:00:00 13,3 10,6 10 5 33 18 SSW 2,9 0 -
14.10.2019 01:00:00 13,4 10,8 6 3 23 13 WSW 3,7 0 0,0
14.10.2019 00:00:00 13,1 11,1 4 2 18 10 E 2,9 0 0,2
13.10.2019 23:00:00 13,4 11,7 6 3 25 14 N 2,8 0 0,0
13.10.2019 22:00:00 13,5 12,1 4 2 14 8 SSE 2,9 0 0,0
13.10.2019 21:00:00 13,5 12,4 6 4 16 9 NNE 2,9 0 0,0
13.10.2019 20:00:00 13,6 12,5 3 2 11 6 E 2,7 0 -
13.10.2019 19:00:00 13,8 12,5 3 2 11 6 NW 2,7 0 0,0
13.10.2019 18:00:00 14,0 12,8 5 3 13 7 W 2,1 0 1,6
13.10.2019 17:00:00 14,4 13,0 5 3 12 6 WNW 1,5 0 1,4
13.10.2019 16:00:00 14,6 12,8 5 3 29 16 W 2,2 0 0,2
13.10.2019 15:00:00 15,0 13,1 7 4 33 18 NW 2,6 0 0,2
13.10.2019 14:00:00 14,1 13,0 7 4 12 6 E 2,0 0 -
13.10.2019 13:00:00 14,2 13,1 4 2 13 7 NE 2,6 0 0,6
13.10.2019 12:00:00 14,0 12,8 5 3 11 6 NNE 2,4 0 0,4
13.10.2019 11:00:00 13,6 12,3 5 3 - - NE 1,9 7 0,4
13.10.2019 10:00:00 13,4 12,0 6 4 20 11 ENE 2,7 7 1,8
13.10.2019 09:00:00 13,2 10,0 10 6 19 10 E 3,3 0 0,0
13.10.2019 08:00:00 13,2 9,4 6 4 24 13 SSE 3,1 0 -
13.10.2019 07:00:00 13,2 9,0 5 3 21 12 E 3,1 0 0,0
13.10.2019 06:00:00 13,2 8,5 9 5 35 19 NNE 2,8 0 0,0
13.10.2019 05:00:00 13,7 7,7 15 8 37 20 SSW 2,9 0 0,0
13.10.2019 04:00:00 12,3 8,4 7 4 16 9 N 2,6 0 0,0
13.10.2019 03:00:00 12,3 7,8 6 3 18 10 NNW 2,7 0 0,0
13.10.2019 02:00:00 13,1 7,1 4 2 33 18 NNE 2,7 0 -
13.10.2019 01:00:00 13,9 7,8 10 5 39 21 S 2,7 0 0,0
13.10.2019 00:00:00 14,6 8,3 10 5 44 24 SSW 2,8 0 0,0
12.10.2019 23:00:00 16,2 8,7 21 11 55 30 SW 3,0 0 0,0
12.10.2019 22:00:00 16,1 10,2 16 9 42 23 WSW 2,4 0 0,0
12.10.2019 21:00:00 16,9 10,5 13 7 41 22 WSW 2,4 0 0,0
12.10.2019 20:00:00 18,5 10,9 12 7 42 23 W 2,4 0 -
12.10.2019 19:00:00 20,7 9,6 13 7 44 24 SW 2,6 22 0,0
12.10.2019 18:00:00 21,9 9,0 18 10 48 26 SW 3,2 41 0,0
12.10.2019 17:00:00 23,1 8,8 14 7 42 23 SW 2,6 42 0,0
12.10.2019 16:00:00 24,1 9,7 9 5 45 24 S 3,0 60 0,0
12.10.2019 15:00:00 23,7 8,1 21 11 51 27 WSW 2,6 60 0,0
12.10.2019 14:00:00 23,2 9,2 14 8 31 17 WSW - 50 -
12.10.2019 13:00:00 21,9 9,4 14 8 39 21 SW 2,9 60 0,0
12.10.2019 12:00:00 20,5 8,8 10 5 23 12 WNW 2,9 60 0,0
12.10.2019 11:00:00 17,2 11,4 7 4 23 12 N 3,2 60 0,0
12.10.2019 10:00:00 15,0 10,8 4 2 17 9 E 2,7 39 0,0
12.10.2019 09:00:00 12,5 9,9 9 5 18 10 NE 2,7 0 0,0
12.10.2019 08:00:00 12,1 8,8 3 1 12 6 NE 2,7 0 -
12.10.2019 07:00:00 12,1 8,5 4 2 15 8 W 2,7 0 0,0
12.10.2019 06:00:00 13,5 8,9 6 3 16 9 NNW 2,7 0 0,0
12.10.2019 05:00:00 14,2 9,2 6 3 11 6 NNE 2,8 0 0,0
12.10.2019 04:00:00 13,9 9,3 3 2 11 6 NNE 2,8 0 0,0
12.10.2019 03:00:00 13,9 9,3 3 2 11 6 N 2,7 0 0,0
12.10.2019 02:00:00 13,8 9,3 3 2 11 6 N 2,7 0 -
12.10.2019 01:00:00 13,8 9,3 2 1 11 6 N 2,7 0 0,0
12.10.2019 00:00:00 13,6 9,3 7 4 13 7 NW 2,7 0 0,0
11.10.2019 23:00:00 15,1 9,2 5 3 16 9 W 2,7 0 0,0
11.10.2019 22:00:00 16,1 9,3 7 4 21 11 NW 2,8 0 0,0
11.10.2019 21:00:00 17,2 9,3 7 4 16 9 W 2,8 0 0,0
11.10.2019 20:00:00 19,4 9,0 8 5 19 11 W 2,7 0 -
11.10.2019 19:00:00 21,9 9,4 10 5 23 13 W 2,8 22 0,0
11.10.2019 18:00:00 23,8 9,0 9 5 28 15 W 2,5 41 0,0
11.10.2019 17:00:00 24,7 9,0 11 6 35 19 WSW 2,8 56 0,0
11.10.2019 16:00:00 24,8 8,3 15 8 40 22 SW 3,3 60 0,0
11.10.2019 15:00:00 24,9 8,0 18 10 37 20 SW 3,1 60 0,0
11.10.2019 14:00:00 24,4 7,6 12 6 26 14 SW 2,9 51 -
11.10.2019 13:00:00 20,6 8,0 7 4 13 7 E 3,0 60 0,0
11.10.2019 12:00:00 17,6 7,0 6 3 11 6 ESE 3,2 60 0,0
11.10.2019 11:00:00 14,6 7,1 3 2 13 7 ENE 3,1 60 0,0
11.10.2019 10:00:00 11,2 6,4 6 3 12 6 WNW 2,9 43 0,0
11.10.2019 09:00:00 8,2 5,0 7 4 13 7 WNW 2,9 0 0,0
11.10.2019 08:00:00 8,2 5,0 7 4 12 7 NW 3,0 0 -
11.10.2019 07:00:00 8,6 5,1 6 3 12 6 NW 3,0 0 0,0
11.10.2019 06:00:00 8,9 5,5 7 4 15 8 NW 2,9 0 0,0
11.10.2019 05:00:00 9,2 5,9 7 4 11 6 NNW 3,0 0 0,0
11.10.2019 04:00:00 9,2 5,9 7 4 14 8 NW 2,9 0 0,0
11.10.2019 03:00:00 9,3 6,2 6 3 14 7 NW 2,9 0 0,0
11.10.2019 02:00:00 9,8 6,1 9 5 14 7 NW 2,9 0 -
11.10.2019 01:00:00 9,9 6,4 8 4 12 7 WNW 2,9 0 0,0
11.10.2019 00:00:00 10,6 6,7 7 4 14 7 NW 2,9 0 0,0
10.10.2019 23:00:00 11,1 6,8 8 5 16 9 NW 2,9 0 0,0
10.10.2019 22:00:00 12,0 7,6 8 5 13 7 NW 2,9 0 0,0
10.10.2019 21:00:00 13,6 7,8 5 3 11 6 W 3,0 0 0,0
10.10.2019 20:00:00 15,4 8,1 6 4 13 7 WNW 2,9 0 -
10.10.2019 19:00:00 18,3 8,0 5 3 13 7 WNW 2,9 30 0,0
10.10.2019 18:00:00 20,2 7,6 4 2 10 5 NW 2,9 60 0,0
10.10.2019 17:00:00 21,0 7,3 3 1 12 7 ENE 3,0 60 0,0
10.10.2019 16:00:00 19,9 7,3 5 3 13 7 ENE 3,0 60 0,0
10.10.2019 15:00:00 18,9 7,7 5 3 14 7 NE 2,9 60 0,0
10.10.2019 14:00:00 - - - - - - - - - -
10.10.2019 13:00:00 - - - - - - - - - -
10.10.2019 12:00:00 12,6 6,7 7 4 13 7 ENE 2,9 60 0,0
10.10.2019 11:00:00 9,9 6,5 6 4 13 7 NNW 2,9 60 0,0
10.10.2019 10:00:00 7,3 5,6 7 4 12 7 NW 2,9 48 0,0
10.10.2019 09:00:00 4,3 3,2 6 4 12 6 NW 2,8 2 0,0
10.10.2019 08:00:00 4,1 3,0 8 4 12 6 NW 2,7 0 -
10.10.2019 07:00:00 4,4 3,2 7 4 14 8 NW 2,7 0 0,0
10.10.2019 06:00:00 4,6 3,4 9 5 14 8 NW 2,7 0 0,0
10.10.2019 05:00:00 4,8 3,6 6 4 13 7 NW 2,7 0 0,0
10.10.2019 04:00:00 5,1 3,9 8 4 15 8 WNW 2,6 0 0,0
10.10.2019 03:00:00 6,0 4,6 10 5 19 10 NW 2,6 0 0,0
10.10.2019 02:00:00 6,8 5,5 8 4 19 10 WNW 2,6 0 -
10.10.2019 01:00:00 8,1 6,5 9 5 19 10 W 2,5 0 0,0
10.10.2019 00:00:00 8,4 6,4 10 6 23 12 W 2,8 0 0,0
09.10.2019 23:00:00 9,2 6,4 8 4 17 9 W 2,8 0 0,0
09.10.2019 22:00:00 9,7 6,1 8 4 18 10 W 2,8 0 0,0
09.10.2019 21:00:00 10,2 5,3 6 4 19 10 WSW 2,8 0 0,0
09.10.2019 20:00:00 12,0 5,1 6 3 19 11 WSW 2,9 0 -
09.10.2019 19:00:00 13,7 4,8 9 5 26 14 WNW 2,9 32 0,0
09.10.2019 18:00:00 15,3 5,5 8 5 28 15 WNW 2,8 60 0,0
09.10.2019 17:00:00 16,4 6,5 11 6 27 15 W 2,9 60 0,0
09.10.2019 16:00:00 16,3 6,4 13 7 31 17 W 2,7 60 0,0
09.10.2019 15:00:00 16,9 7,3 10 5 22 12 WNW 2,5 60 0,2
09.10.2019 14:00:00 16,6 5,8 5 3 16 9 NNW 2,7 51 -
09.10.2019 13:00:00 15,1 6,4 5 3 24 13 WNW 2,8 60 0,0
09.10.2019 12:00:00 13,5 7,0 8 5 16 9 NNW 2,6 60 0,0
09.10.2019 11:00:00 11,3 6,7 4 2 10 6 W 2,9 60 0,0
09.10.2019 10:00:00 9,8 7,8 6 3 12 7 WSW 2,8 56 0,0
09.10.2019 09:00:00 7,9 6,5 4 2 11 6 W 2,8 0 0,0
09.10.2019 08:00:00 8,0 7,1 5 3 9 5 SW 2,6 0 -
09.10.2019 07:00:00 6,8 5,9 5 3 12 7 W 2,8 0 0,0
09.10.2019 06:00:00 6,7 5,5 5 3 13 7 W 2,7 0 0,0
09.10.2019 05:00:00 7,6 5,9 4 2 20 11 W 2,6 0 0,0
09.10.2019 04:00:00 9,6 8,0 8 5 24 13 WNW 2,7 0 0,0
09.10.2019 03:00:00 10,2 8,9 10 5 22 12 W 1,5 0 0,0
09.10.2019 02:00:00 10,1 8,9 7 4 24 13 W 1,6 0 -
09.10.2019 01:00:00 10,7 9,3 10 5 24 13 W 2,5 0 0,0
09.10.2019 00:00:00 11,7 10,4 9 5 28 15 W 1,6 0 0,2
08.10.2019 23:00:00 12,5 11,2 8 5 25 13 WSW 1,8 0 0,0
08.10.2019 22:00:00 13,2 11,8 8 5 26 14 W 1,9 0 0,2
08.10.2019 21:00:00 13,9 12,4 6 3 23 12 W 2,1 0 0,0
08.10.2019 20:00:00 14,8 13,4 6 4 22 12 W 1,4 0 -
08.10.2019 19:00:00 16,3 14,3 9 5 19 10 W 2,6 0 0,0
08.10.2019 18:00:00 17,7 15,0 8 5 24 13 WNW 2,5 1 0,0
08.10.2019 17:00:00 19,9 15,8 9 5 25 14 WNW 2,7 9 0,0
08.10.2019 16:00:00 22,1 14,7 9 5 25 14 WNW 3,0 30 0,0
08.10.2019 15:00:00 21,2 14,3 10 5 22 12 WNW 2,8 6 0,0
08.10.2019 14:00:00 21,8 13,9 4 2 14 8 W 2,9 11 -
08.10.2019 13:00:00 20,2 13,7 5 3 12 7 E 3,1 42 0,0

tt = temperature
td = dewpoint
ff = wind speed
fx = gusts
dd = wind direction
vv = visibility
sd = sunshine duration
rr = precipitation

Next stations